createdAt,value
2022-08-03T00:01:26.160Z,101076.44
2022-08-03T00:03:27.695Z,101068.72
2022-08-03T00:05:29.247Z,101079.91
2022-08-03T00:07:30.756Z,101080.91
2022-08-03T00:09:35.483Z,101080.34
2022-08-03T00:11:37.689Z,101080.75
2022-08-03T00:13:39.199Z,101079.00
2022-08-03T00:15:42.267Z,101077.25
2022-08-03T00:17:53.727Z,101084.34
2022-08-03T00:19:55.486Z,101082.66
2022-08-03T00:21:57.137Z,101085.59
2022-08-03T00:23:58.652Z,101091.50
2022-08-03T00:26:00.176Z,101085.25
2022-08-03T00:28:01.916Z,101088.91
2022-08-03T00:30:03.808Z,101087.13
2022-08-03T00:32:06.900Z,101085.19
2022-08-03T00:34:12.599Z,101088.50
2022-08-03T00:36:14.179Z,101088.75
2022-08-03T00:38:16.893Z,101087.25
2022-08-03T00:40:19.080Z,101084.69
2022-08-03T00:42:20.600Z,101070.84
2022-08-03T00:44:22.134Z,101085.47
2022-08-03T00:46:23.660Z,101079.59
2022-08-03T00:48:33.073Z,101079.41
2022-08-03T00:50:35.999Z,101074.06
2022-08-03T00:52:37.573Z,101078.03
2022-08-03T00:54:39.130Z,101076.75
2022-08-03T00:56:40.634Z,101074.91
2022-08-03T00:59:01.859Z,101069.41
2022-08-03T01:01:03.680Z,101063.72
2022-08-03T01:03:05.339Z,101067.28
2022-08-03T01:05:08.438Z,101067.38
2022-08-03T01:07:11.465Z,101067.47
2022-08-03T01:09:23.286Z,101069.25
2022-08-03T01:11:26.847Z,101060.00
2022-08-03T01:14:04.352Z,101060.63
2022-08-03T01:15:53.477Z,101058.84
2022-08-03T01:17:56.125Z,101053.78
2022-08-03T01:19:59.590Z,101056.25
2022-08-03T01:22:08.084Z,101050.84
2022-08-03T01:24:24.471Z,101051.41
2022-08-03T01:26:38.022Z,101045.19
2022-08-03T01:28:47.333Z,101043.56
2022-08-03T01:30:50.390Z,101045.31
2022-08-03T01:33:01.131Z,101041.44
2022-08-03T01:35:05.092Z,101040.63
2022-08-03T01:37:06.621Z,101044.50
2022-08-03T01:39:08.271Z,101037.19
2022-08-03T01:41:12.290Z,101041.84
2022-08-03T01:43:15.413Z,101047.03
2022-08-03T01:45:36.895Z,101039.78
2022-08-03T01:47:39.795Z,101038.19
2022-08-03T01:49:43.507Z,101038.97
2022-08-03T01:52:04.367Z,101037.19
2022-08-03T01:54:06.737Z,101034.25
2022-08-03T01:56:08.257Z,101031.91
2022-08-03T01:58:09.776Z,101037.41
2022-08-03T02:00:11.790Z,101037.47
2022-08-03T02:02:29.746Z,101034.63
2022-08-03T02:04:36.487Z,101035.16
2022-08-03T02:06:55.693Z,101031.38
2022-08-03T02:08:59.672Z,101031.47
2022-08-03T02:11:01.167Z,101027.03
2022-08-03T02:13:03.896Z,101025.00
2022-08-03T02:15:05.939Z,101024.59
2022-08-03T02:17:07.604Z,101023.09
2022-08-03T02:19:09.134Z,101023.13
2022-08-03T02:21:12.020Z,101019.91
2022-08-03T02:23:33.518Z,101023.38
2022-08-03T02:25:39.060Z,101018.50
2022-08-03T02:27:43.950Z,101015.97
2022-08-03T02:29:46.264Z,101018.31
2022-08-03T02:31:47.864Z,101006.97
2022-08-03T02:33:53.539Z,101021.13
2022-08-03T02:35:55.072Z,101016.69
2022-08-03T02:37:58.369Z,101020.72
2022-08-03T02:40:01.534Z,101021.38
2022-08-03T02:42:03.260Z,101012.72
2022-08-03T02:44:07.877Z,101018.53
2022-08-03T02:46:09.416Z,101014.28
2022-08-03T02:48:10.942Z,101012.31
2022-08-03T02:50:13.073Z,101013.25
2022-08-03T02:52:15.997Z,101004.41
2022-08-03T02:54:20.194Z,101006.38
2022-08-03T02:56:21.817Z,101010.94
2022-08-03T02:58:23.430Z,101010.56
2022-08-03T03:00:31.873Z,101008.59
2022-08-03T03:02:33.494Z,101008.69
2022-08-03T03:04:35.014Z,101009.41
2022-08-03T03:06:37.867Z,101005.47
2022-08-03T03:08:41.289Z,100996.84
2022-08-03T03:10:44.572Z,100994.31
2022-08-03T03:12:46.099Z,100999.22
2022-08-03T03:14:47.665Z,100996.47
2022-08-03T03:16:50.717Z,100998.44
2022-08-03T03:18:53.537Z,100999.41
2022-08-03T03:20:55.050Z,100999.63
2022-08-03T03:22:56.634Z,100995.22
2022-08-03T03:24:58.163Z,100999.66
2022-08-03T03:27:01.160Z,101002.56
2022-08-03T03:29:02.717Z,101000.06
2022-08-03T03:31:04.347Z,100992.13
2022-08-03T03:33:05.860Z,100997.72
2022-08-03T03:35:07.959Z,101001.41
2022-08-03T03:37:09.490Z,100992.19
2022-08-03T03:39:15.645Z,100993.22
2022-08-03T03:41:17.588Z,100994.94
2022-08-03T03:43:20.484Z,100996.91
2022-08-03T03:45:21.995Z,100993.78
2022-08-03T03:47:32.841Z,100991.19
2022-08-03T03:49:34.636Z,100993.78
2022-08-03T03:51:36.147Z,100991.81
2022-08-03T03:53:37.662Z,100989.81
2022-08-03T03:55:57.782Z,100985.44
2022-08-03T03:58:01.248Z,100989.72
2022-08-03T04:00:04.734Z,100985.94
2022-08-03T04:02:06.333Z,100990.91
2022-08-03T04:04:07.964Z,100983.59
2022-08-03T04:06:09.616Z,100986.94
2022-08-03T04:08:12.781Z,100991.94
2022-08-03T04:10:16.516Z,100991.22
2022-08-03T04:12:18.170Z,100989.88
2022-08-03T04:14:20.879Z,100997.00
2022-08-03T04:16:24.096Z,100988.44
2022-08-03T04:18:25.686Z,100996.34
2022-08-03T04:20:28.267Z,100999.09
2022-08-03T04:22:29.776Z,100998.13
2022-08-03T04:24:32.976Z,100996.19
2022-08-03T04:26:35.692Z,100995.75
2022-08-03T04:28:37.679Z,100996.31
2022-08-03T04:30:39.191Z,100993.66
2022-08-03T04:32:45.846Z,100994.72
2022-08-03T04:34:47.584Z,100988.53
2022-08-03T04:36:50.012Z,100995.75
2022-08-03T04:38:55.481Z,100993.00
2022-08-03T04:40:57.034Z,100988.56
2022-08-03T04:42:58.664Z,100996.56
2022-08-03T04:45:01.678Z,100996.31
2022-08-03T04:47:03.487Z,100998.31
2022-08-03T04:49:06.715Z,100992.09
2022-08-03T04:51:08.292Z,100992.69
2022-08-03T04:53:09.795Z,100994.47
2022-08-03T04:55:11.306Z,100992.75
2022-08-03T04:57:22.209Z,100990.78
2022-08-03T04:59:25.013Z,100992.34
2022-08-03T05:01:26.572Z,100994.59
2022-08-03T05:03:28.094Z,100998.09
2022-08-03T05:05:48.892Z,100993.84
2022-08-03T05:07:51.889Z,100997.78
2022-08-03T05:10:01.729Z,101000.72
2022-08-03T05:12:05.330Z,101000.66
2022-08-03T05:14:06.874Z,100993.41
2022-08-03T05:16:08.394Z,101000.25
2022-08-03T05:18:13.887Z,100999.09
2022-08-03T05:20:18.798Z,100999.78
2022-08-03T05:22:22.063Z,101000.63
2022-08-03T05:24:23.559Z,100998.31
2022-08-03T05:26:25.085Z,101005.44
2022-08-03T05:28:28.292Z,101003.41
2022-08-03T05:30:33.882Z,101003.50
2022-08-03T05:32:36.009Z,101006.28
2022-08-03T05:34:37.674Z,101009.75
2022-08-03T05:36:39.178Z,101003.22
2022-08-03T05:38:42.100Z,101015.28
2022-08-03T05:40:56.824Z,101007.44
2022-08-03T05:42:59.385Z,101005.66
2022-08-03T05:45:03.644Z,101005.53
2022-08-03T05:47:05.234Z,101008.16
2022-08-03T05:49:06.870Z,101008.69
2022-08-03T05:51:08.494Z,101008.34
2022-08-03T05:53:09.991Z,101001.88
2022-08-03T05:55:13.181Z,101005.75
2022-08-03T05:57:14.779Z,101011.91
2022-08-03T05:59:37.007Z,101015.38
2022-08-03T06:01:38.009Z,101010.09
2022-08-03T06:03:39.678Z,101017.84
2022-08-03T06:05:43.325Z,101014.09
2022-08-03T06:07:57.108Z,101021.13
2022-08-03T06:10:36.673Z,101017.59
2022-08-03T06:12:21.519Z,101023.56
2022-08-03T06:14:23.016Z,101025.94
2022-08-03T06:16:24.521Z,101026.16
2022-08-03T06:18:26.018Z,101021.63
2022-08-03T06:20:27.707Z,101030.47
2022-08-03T06:22:29.254Z,101021.53
2022-08-03T06:24:31.299Z,101020.28
2022-08-03T06:26:32.845Z,101019.88
2022-08-03T06:28:53.118Z,101023.50
2022-08-03T06:30:55.443Z,101025.31
2022-08-03T06:32:56.942Z,101021.59
2022-08-03T06:34:58.466Z,101022.91
2022-08-03T06:37:02.159Z,101022.78
2022-08-03T06:39:04.152Z,101019.34
2022-08-03T06:41:05.625Z,101027.19
2022-08-03T06:43:10.718Z,101022.56
2022-08-03T06:45:15.582Z,101020.47
2022-08-03T06:47:17.122Z,101018.34
2022-08-03T06:49:19.005Z,101015.06
2022-08-03T06:51:21.211Z,101021.59
2022-08-03T06:53:42.712Z,101028.00
2022-08-03T06:55:44.240Z,101021.59
2022-08-03T06:57:45.770Z,101019.72
2022-08-03T07:00:10.467Z,101020.63
2022-08-03T07:02:10.222Z,101032.47
2022-08-03T07:04:11.775Z,101028.78
2022-08-03T07:06:13.264Z,101024.81
2022-08-03T07:08:14.814Z,101024.09
2022-08-03T07:10:16.343Z,101023.69
2022-08-03T07:12:18.172Z,101019.09
2022-08-03T07:14:19.963Z,101021.28
2022-08-03T07:16:21.439Z,101023.47
2022-08-03T07:18:29.968Z,101020.28
2022-08-03T07:20:32.686Z,101027.19
2022-08-03T07:22:34.485Z,101018.50
2022-08-03T07:24:36.093Z,101014.47
2022-08-03T07:26:37.604Z,101022.69
2022-08-03T07:28:39.124Z,101018.97
2022-08-03T07:30:40.625Z,101017.03
2022-08-03T07:32:50.387Z,101021.09
2022-08-03T07:34:58.339Z,101015.94
2022-08-03T07:37:01.995Z,101012.19
2022-08-03T07:39:14.694Z,101013.91
2022-08-03T07:41:19.451Z,101007.34
2022-08-03T07:43:20.960Z,101014.13
2022-08-03T07:45:22.476Z,101014.78
2022-08-03T07:47:24.386Z,101012.81
2022-08-03T07:49:25.960Z,101020.25
2022-08-03T07:51:28.896Z,101017.78
2022-08-03T07:53:30.398Z,101023.78
2022-08-03T07:55:31.890Z,101023.72
2022-08-03T07:57:33.415Z,101017.47
2022-08-03T08:00:01.567Z,101022.72
2022-08-03T08:01:56.416Z,101019.38
2022-08-03T08:03:57.907Z,101017.03
2022-08-03T08:05:59.435Z,101014.63
2022-08-03T08:08:02.525Z,101018.00
2022-08-03T08:10:04.411Z,101021.44
2022-08-03T08:12:06.364Z,101019.59
2022-08-03T08:14:16.948Z,101018.50
2022-08-03T08:16:18.675Z,101021.47
2022-08-03T08:18:20.219Z,101018.88
2022-08-03T08:20:27.706Z,101018.19
2022-08-03T08:22:31.496Z,101010.44
2022-08-03T08:24:34.704Z,101018.47
2022-08-03T08:26:38.423Z,101015.41
2022-08-03T08:28:39.965Z,101019.66
2022-08-03T08:30:41.551Z,101012.41
2022-08-03T08:32:43.041Z,101014.69
2022-08-03T08:34:44.549Z,101010.53
2022-08-03T08:36:46.024Z,101004.78
2022-08-03T08:38:49.177Z,101013.47
2022-08-03T08:40:54.447Z,101008.47
2022-08-03T08:42:58.876Z,100994.63
2022-08-03T08:45:00.649Z,100999.34
2022-08-03T08:47:02.684Z,101003.31
2022-08-03T08:49:04.852Z,101000.50
2022-08-03T08:51:07.289Z,101001.25
2022-08-03T08:53:10.710Z,101002.78
2022-08-03T08:55:19.851Z,101005.06
2022-08-03T08:57:41.856Z,100998.06
2022-08-03T08:59:48.454Z,100999.38
2022-08-03T09:01:51.229Z,100987.25
2022-08-03T09:03:52.762Z,100997.75
2022-08-03T09:05:56.226Z,100987.69
2022-08-03T09:07:58.114Z,101002.91
2022-08-03T09:10:11.418Z,100996.00
2022-08-03T09:12:39.179Z,100992.38
2022-08-03T09:14:49.760Z,100995.44
2022-08-03T09:16:59.733Z,100989.91
2022-08-03T09:19:11.655Z,100983.31
2022-08-03T09:21:31.795Z,100990.59
2022-08-03T09:23:59.550Z,100985.59
2022-08-03T09:26:02.847Z,100987.38
2022-08-03T09:28:05.416Z,100984.84
2022-08-03T09:30:33.767Z,100988.41
2022-08-03T09:32:33.943Z,100984.63
2022-08-03T09:34:36.317Z,100984.53
2022-08-03T09:36:38.468Z,100989.91
2022-08-03T09:38:39.975Z,100986.06
2022-08-03T09:40:41.765Z,100986.44
2022-08-03T09:42:46.599Z,100983.75
2022-08-03T09:44:48.661Z,100984.16
2022-08-03T09:46:52.578Z,100985.94
2022-08-03T09:48:54.179Z,100979.09
2022-08-03T09:50:57.039Z,100979.06
2022-08-03T09:53:01.740Z,100968.38
2022-08-03T09:55:07.630Z,100970.22
2022-08-03T09:57:29.251Z,100973.47
2022-08-03T09:59:31.848Z,100958.97
2022-08-03T10:01:33.506Z,100959.78
2022-08-03T10:04:02.778Z,100957.00
2022-08-03T10:06:00.078Z,100959.09
2022-08-03T10:08:10.465Z,100957.13
2022-08-03T10:10:30.520Z,100957.88
2022-08-03T10:12:33.433Z,100957.25
2022-08-03T10:14:36.902Z,100953.53
2022-08-03T10:16:38.808Z,100950.78
2022-08-03T10:18:41.700Z,100953.28
2022-08-03T10:20:43.872Z,100959.13
2022-08-03T10:22:45.366Z,100943.09
2022-08-03T10:24:49.728Z,100940.25
2022-08-03T10:26:51.211Z,100946.34
2022-08-03T10:28:53.323Z,100944.97
2022-08-03T10:30:54.867Z,100939.88
2022-08-03T10:32:56.618Z,100938.53
2022-08-03T10:35:20.443Z,100940.81
2022-08-03T10:37:22.716Z,100931.84
2022-08-03T10:39:24.562Z,100931.53
2022-08-03T10:41:26.643Z,100933.84
2022-08-03T10:43:28.925Z,100926.50
2022-08-03T10:45:30.531Z,100929.38
2022-08-03T10:47:32.252Z,100919.22
2022-08-03T10:49:35.489Z,100919.81
2022-08-03T10:51:38.663Z,100919.25
2022-08-03T10:53:40.590Z,100916.84
2022-08-03T10:55:46.001Z,100915.88
2022-08-03T10:57:49.801Z,100908.94
2022-08-03T10:59:56.803Z,100917.69
2022-08-03T11:02:01.021Z,100905.41
2022-08-03T11:04:17.063Z,100910.19
2022-08-03T11:06:19.789Z,100906.66
2022-08-03T11:08:30.180Z,100904.44
2022-08-03T11:10:33.053Z,100902.78
2022-08-03T11:12:34.667Z,100905.28
2022-08-03T11:14:45.905Z,100902.97
2022-08-03T11:16:49.095Z,100898.94
2022-08-03T11:18:57.239Z,100896.16
2022-08-03T11:20:59.551Z,100901.94
2022-08-03T11:23:01.022Z,100889.59
2022-08-03T11:25:02.532Z,100888.25
2022-08-03T11:27:17.863Z,100897.41
2022-08-03T11:29:28.936Z,100884.97
2022-08-03T11:31:50.755Z,100891.19
2022-08-03T11:34:03.116Z,100885.03
2022-08-03T11:36:04.941Z,100885.50
2022-08-03T11:38:07.126Z,100881.72
2022-08-03T11:40:08.993Z,100874.31
2022-08-03T11:42:29.229Z,100876.44
2022-08-03T11:44:41.197Z,100881.63
2022-08-03T11:46:42.687Z,100874.47
2022-08-03T11:48:44.683Z,100870.00
2022-08-03T11:50:46.161Z,100871.94
2022-08-03T11:52:48.563Z,100863.50
2022-08-03T11:54:50.758Z,100871.03
2022-08-03T11:56:58.344Z,100869.84
2022-08-03T11:59:19.012Z,100867.25
2022-08-03T12:01:23.296Z,100862.31
2022-08-03T12:03:25.136Z,100867.94
2022-08-03T12:05:51.932Z,100867.63
2022-08-03T12:08:04.123Z,100863.34
2022-08-03T12:10:08.514Z,100869.78
2022-08-03T12:12:10.012Z,100870.47
2022-08-03T12:14:48.686Z,100867.91
2022-08-03T12:16:38.088Z,100868.44
2022-08-03T12:18:39.603Z,100866.66
2022-08-03T12:20:41.352Z,100861.56
2022-08-03T12:22:43.086Z,100865.13
2022-08-03T12:24:46.772Z,100857.78
2022-08-03T12:26:58.195Z,100859.06
2022-08-03T12:29:01.184Z,100854.22
2022-08-03T12:31:03.882Z,100863.91
2022-08-03T12:33:16.494Z,100863.09
2022-08-03T12:35:24.170Z,100856.50
2022-08-03T12:37:25.889Z,100853.38
2022-08-03T12:39:27.656Z,100855.84
2022-08-03T12:41:30.132Z,100847.84
2022-08-03T12:43:36.688Z,100851.94
2022-08-03T12:45:41.254Z,100854.44
2022-08-03T12:47:49.570Z,100838.34
2022-08-03T12:49:53.037Z,100840.78
2022-08-03T12:51:58.367Z,100837.47
2022-08-03T12:53:59.844Z,100838.22
2022-08-03T12:56:05.680Z,100836.50
2022-08-03T12:58:07.987Z,100837.16
2022-08-03T13:00:29.043Z,100832.59
2022-08-03T13:02:31.338Z,100827.19
2022-08-03T13:04:34.476Z,100834.19
2022-08-03T13:06:37.427Z,100831.31
2022-08-03T13:08:38.964Z,100826.03
2022-08-03T13:10:40.450Z,100833.66
2022-08-03T13:12:48.210Z,100834.88
2022-08-03T13:14:50.228Z,100831.22
2022-08-03T13:16:51.823Z,100827.47
2022-08-03T13:18:53.356Z,100822.56
2022-08-03T13:20:54.880Z,100820.63
2022-08-03T13:23:00.827Z,100820.78
2022-08-03T13:25:03.656Z,100815.69
2022-08-03T13:28:02.422Z,100810.59
2022-08-03T13:29:26.723Z,100812.34
2022-08-03T13:31:28.227Z,100807.38
2022-08-03T13:33:30.138Z,100792.88
2022-08-03T13:35:31.636Z,100803.13
2022-08-03T13:37:33.179Z,100803.91
2022-08-03T13:39:57.311Z,100803.13
2022-08-03T13:42:00.729Z,100799.53
2022-08-03T13:44:26.691Z,100801.53
2022-08-03T13:46:23.828Z,100798.38
2022-08-03T13:48:37.153Z,100805.47
2022-08-03T13:50:42.943Z,100794.25
2022-08-03T13:52:44.737Z,100798.38
2022-08-03T13:54:47.703Z,100805.13
2022-08-03T13:56:49.341Z,100801.22
2022-08-03T13:58:50.854Z,100806.31
2022-08-03T14:00:52.352Z,100794.50
2022-08-03T14:02:57.256Z,100790.94
2022-08-03T14:05:03.887Z,100786.63
2022-08-03T14:07:05.531Z,100788.09
2022-08-03T14:09:07.172Z,100789.94
2022-08-03T14:11:10.051Z,100778.53
2022-08-03T14:13:12.017Z,100775.50
2022-08-03T14:15:13.511Z,100776.88
2022-08-03T14:17:16.311Z,100770.66
2022-08-03T14:19:18.205Z,100766.31
2022-08-03T14:21:26.510Z,100772.94
2022-08-03T14:23:28.023Z,100766.56
2022-08-03T14:25:29.599Z,100760.06
2022-08-03T14:27:46.349Z,100760.78
2022-08-03T14:29:47.909Z,100758.06
2022-08-03T14:32:11.160Z,100748.59
2022-08-03T14:34:11.047Z,100751.91
2022-08-03T14:36:12.553Z,100752.25
2022-08-03T14:38:14.094Z,100737.59
2022-08-03T14:40:15.682Z,100733.84
2022-08-03T14:42:17.212Z,100737.31
2022-08-03T14:44:20.198Z,100737.69
2022-08-03T14:46:21.712Z,100733.78
2022-08-03T14:50:34.122Z,100726.84
2022-08-03T14:50:50.668Z,100730.56
2022-08-03T14:52:52.412Z,100724.13
2022-08-03T14:54:53.933Z,100731.59
2022-08-03T14:56:55.433Z,100722.72
2022-08-03T14:58:57.145Z,100724.91
2022-08-03T15:01:00.028Z,100724.06
2022-08-03T15:03:01.679Z,100723.25
2022-08-03T15:05:03.334Z,100725.53
2022-08-03T15:07:04.900Z,100711.31
2022-08-03T15:09:21.170Z,100709.28
2022-08-03T15:11:24.740Z,100712.94
2022-08-03T15:13:26.398Z,100708.34
2022-08-03T15:15:28.025Z,100697.66
2022-08-03T15:17:30.951Z,100702.13
2022-08-03T15:20:00.509Z,100697.13
2022-08-03T15:21:55.924Z,100697.38
2022-08-03T15:23:57.452Z,100698.78
2022-08-03T15:26:30.292Z,100688.06
2022-08-03T15:28:20.547Z,100679.78
2022-08-03T15:30:22.092Z,100686.25
2022-08-03T15:32:23.611Z,100678.78
2022-08-03T15:34:26.534Z,100678.19
2022-08-03T15:36:28.040Z,100677.97
2022-08-03T15:38:29.561Z,100687.25
2022-08-03T15:40:31.087Z,100678.31
2022-08-03T15:42:32.897Z,100680.13
2022-08-03T15:44:34.409Z,100674.78
2022-08-03T15:46:35.949Z,100667.88
2022-08-03T15:48:37.534Z,100664.63
2022-08-03T15:50:40.588Z,100658.34
2022-08-03T15:52:42.181Z,100660.66
2022-08-03T15:54:43.753Z,100658.84
2022-08-03T15:56:45.261Z,100649.16
2022-08-03T15:59:09.218Z,100662.34
2022-08-03T16:01:08.321Z,100658.47
2022-08-03T16:03:09.925Z,100659.63
2022-08-03T16:05:11.450Z,100649.59
2022-08-03T16:07:14.399Z,100666.16
2022-08-03T16:09:24.373Z,100666.16
2022-08-03T16:11:37.581Z,100655.16
2022-08-03T16:14:13.375Z,100652.94
2022-08-03T16:16:00.600Z,100639.16
2022-08-03T16:18:02.129Z,100639.97
2022-08-03T16:20:10.474Z,100641.41
2022-08-03T16:22:14.531Z,100638.53
2022-08-03T16:24:17.451Z,100639.66
2022-08-03T16:26:21.494Z,100640.84
2022-08-03T16:28:23.005Z,100635.44
2022-08-03T16:30:24.616Z,100630.28
2022-08-03T16:32:26.289Z,100633.72
2022-08-03T16:34:27.836Z,100628.94
2022-08-03T16:36:34.813Z,100633.06
2022-08-03T16:38:37.975Z,100632.59
2022-08-03T16:40:39.483Z,100624.78
2022-08-03T16:42:41.019Z,100630.28
2022-08-03T16:44:42.510Z,100624.19
2022-08-03T16:46:44.067Z,100630.31
2022-08-03T16:48:45.601Z,100628.78
2022-08-03T16:50:47.596Z,100614.53
2022-08-03T16:52:49.266Z,100624.78
2022-08-03T16:54:53.561Z,100625.38
2022-08-03T16:56:55.810Z,100618.88
2022-08-03T16:58:58.492Z,100618.81
2022-08-03T17:01:00.021Z,100622.66
2022-08-03T17:03:04.053Z,100616.94
2022-08-03T17:05:06.554Z,100612.94
2022-08-03T17:07:09.562Z,100606.50
2022-08-03T17:09:14.941Z,100609.97
2022-08-03T17:11:21.298Z,100601.16
2022-08-03T17:13:27.623Z,100608.69
2022-08-03T17:16:01.467Z,100603.81
2022-08-03T17:18:04.868Z,100596.75
2022-08-03T17:20:09.684Z,100598.47
2022-08-03T17:22:12.193Z,100597.72
2022-08-03T17:24:14.663Z,100593.00
2022-08-03T17:26:22.640Z,100592.78
2022-08-03T17:28:48.124Z,100588.78
2022-08-03T17:30:53.915Z,100585.81
2022-08-03T17:32:57.985Z,100588.38
2022-08-03T17:34:59.694Z,100590.53
2022-08-03T17:37:04.117Z,100586.72
2022-08-03T17:39:06.648Z,100594.78
2022-08-03T17:41:10.541Z,100599.16
2022-08-03T17:44:12.957Z,100589.91
2022-08-03T17:45:52.237Z,100581.19
2022-08-03T17:47:57.358Z,100591.50
2022-08-03T17:49:59.538Z,100585.44
2022-08-03T17:54:24.476Z,100588.38
2022-08-03T17:56:42.669Z,100586.66
2022-08-03T17:58:51.040Z,100575.78
2022-08-03T18:00:54.165Z,100582.16
2022-08-03T18:03:04.108Z,100582.28
2022-08-03T18:05:16.629Z,100583.78
2022-08-03T18:07:18.777Z,100591.69
2022-08-03T18:10:03.614Z,100586.91
2022-08-03T18:11:42.906Z,100584.47
2022-08-03T18:13:44.889Z,100594.47
2022-08-03T18:16:01.007Z,100592.00
2022-08-03T18:18:10.410Z,100589.53
2022-08-03T18:20:34.156Z,100592.13
2022-08-03T18:22:40.229Z,100589.41
2022-08-03T18:24:42.399Z,100589.78
2022-08-03T18:26:48.919Z,100592.72
2022-08-03T18:28:51.919Z,100589.91
2022-08-03T18:30:55.210Z,100594.28
2022-08-03T18:33:00.796Z,100596.22
2022-08-03T18:35:19.797Z,100586.00
2022-08-03T18:37:26.322Z,100593.94
2022-08-03T18:39:27.891Z,100589.19
2022-08-03T18:41:32.200Z,100597.81
2022-08-03T18:43:46.260Z,100595.19
2022-08-03T18:45:55.772Z,100596.75
2022-08-03T18:48:01.874Z,100596.28
2022-08-03T18:50:06.077Z,100597.91
2022-08-03T18:52:26.991Z,100594.84
2022-08-03T18:54:45.876Z,100594.84
2022-08-03T18:56:52.731Z,100598.47
2022-08-03T18:58:55.834Z,100589.19
2022-08-03T19:01:04.485Z,100594.44
2022-08-03T19:03:20.599Z,100590.56
2022-08-03T19:05:24.003Z,100593.09
2022-08-03T19:07:47.642Z,100591.09
2022-08-03T19:10:00.417Z,100590.59
2022-08-03T19:14:29.863Z,100594.72
2022-08-03T19:16:34.205Z,100595.09
2022-08-03T19:18:37.388Z,100592.50
2022-08-03T19:20:38.894Z,100596.28
2022-08-03T19:22:40.574Z,100600.22
2022-08-03T19:24:48.173Z,100593.97
2022-08-03T19:26:52.147Z,100606.19
2022-08-03T19:28:54.033Z,100596.03
2022-08-03T19:30:56.735Z,100599.22
2022-08-03T19:33:00.683Z,100605.59
2022-08-03T19:35:04.327Z,100604.53
2022-08-03T19:37:06.282Z,100601.66
2022-08-03T19:39:09.218Z,100599.66
2022-08-03T19:41:10.897Z,100607.50
2022-08-03T19:43:16.903Z,100608.72
2022-08-03T19:45:21.545Z,100601.81
2022-08-03T19:47:26.309Z,100602.50
2022-08-03T19:50:00.004Z,100609.22
2022-08-03T19:52:01.514Z,100609.97
2022-08-03T19:54:04.873Z,100610.34
2022-08-03T19:56:06.468Z,100614.72
2022-08-03T19:58:08.454Z,100604.97
2022-08-03T20:00:19.547Z,100608.22
2022-08-03T20:02:26.497Z,100611.56
2022-08-03T20:04:29.186Z,100623.47
2022-08-03T20:06:31.304Z,100612.91
2022-08-03T20:08:34.172Z,100612.38
2022-08-03T20:10:36.441Z,100619.78
2022-08-03T20:12:39.385Z,100617.41
2022-08-03T20:14:41.128Z,100613.53
2022-08-03T20:16:43.157Z,100623.41
2022-08-03T20:18:44.792Z,100615.09
2022-08-03T20:20:46.408Z,100615.25
2022-08-03T20:22:48.661Z,100617.72
2022-08-03T20:24:53.055Z,100618.31
2022-08-03T20:26:55.378Z,100625.22
2022-08-03T20:29:01.387Z,100626.19
2022-08-03T20:31:11.656Z,100625.66
2022-08-03T20:33:19.011Z,100623.72
2022-08-03T20:35:21.032Z,100620.44
2022-08-03T20:37:22.573Z,100627.81
2022-08-03T20:39:24.925Z,100631.69
2022-08-03T20:41:30.583Z,100637.72
2022-08-03T20:43:32.287Z,100628.69
2022-08-03T20:46:00.680Z,100644.44
2022-08-03T20:47:55.267Z,100647.09
2022-08-03T20:49:56.804Z,100646.44
2022-08-03T20:51:59.565Z,100658.78
2022-08-03T20:54:05.062Z,100652.91
2022-08-03T20:56:19.673Z,100657.28
2022-08-03T20:58:23.895Z,100659.47
2022-08-03T21:00:25.661Z,100653.59
2022-08-03T21:02:31.198Z,100659.91
2022-08-03T21:04:32.878Z,100665.47
2022-08-03T21:06:35.431Z,100668.47
2022-08-03T21:08:37.908Z,100661.41
2022-08-03T21:10:48.930Z,100662.34
2022-08-03T21:12:51.513Z,100662.44
2022-08-03T21:13:01.459Z,100585.69
2022-08-03T21:13:04.308Z,100588.22
2022-08-03T21:14:56.685Z,100666.16
2022-08-03T21:16:58.210Z,100663.41
2022-08-03T21:19:00.000Z,100672.59
2022-08-03T21:21:01.530Z,100669.56
2022-08-03T21:23:03.076Z,100676.06
2022-08-03T21:25:05.536Z,100671.06
2022-08-03T21:27:07.114Z,100670.25
2022-08-03T21:29:08.790Z,100682.22
2022-08-03T21:31:11.688Z,100681.59
2022-08-03T21:33:13.587Z,100696.66
2022-08-03T21:35:15.111Z,100696.47
2022-08-03T21:37:16.612Z,100695.28
2022-08-03T21:39:18.189Z,100693.53
2022-08-03T21:41:19.902Z,100691.38
2022-08-03T21:43:21.430Z,100699.31
2022-08-03T21:45:22.933Z,100694.38
2022-08-03T21:47:25.901Z,100694.19
2022-08-03T21:50:07.565Z,100697.53
2022-08-03T21:51:49.649Z,100704.56
2022-08-03T21:54:02.659Z,100708.03
2022-08-03T21:56:07.124Z,100715.03
2022-08-03T21:58:08.682Z,100711.78
2022-08-03T22:00:12.357Z,100714.72
2022-08-03T22:02:24.230Z,100724.66
2022-08-03T22:04:55.810Z,100711.19
2022-08-03T22:06:49.304Z,100708.63
2022-08-03T22:08:51.302Z,100714.00
2022-08-03T22:10:52.796Z,100717.16
2022-08-03T22:12:54.459Z,100715.13
2022-08-03T22:15:00.784Z,100718.38
2022-08-03T22:17:03.407Z,100718.03
2022-08-03T22:19:08.006Z,100718.31
2022-08-03T22:21:11.484Z,100711.06
2022-08-03T22:23:13.056Z,100724.97
2022-08-03T22:25:15.330Z,100722.47
2022-08-03T22:27:17.620Z,100722.75
2022-08-03T22:29:19.170Z,100730.00
2022-08-03T22:31:57.143Z,100726.78
2022-08-03T22:33:42.563Z,100725.31
2022-08-03T22:35:47.927Z,100720.63
2022-08-03T22:37:52.251Z,100724.84
2022-08-03T22:39:54.386Z,100735.94
2022-08-03T22:41:56.431Z,100732.31
2022-08-03T22:43:58.231Z,100729.53
2022-08-03T22:46:11.514Z,100727.56
2022-08-03T22:48:16.021Z,100724.56
2022-08-03T22:50:32.323Z,100728.16
2022-08-03T22:52:36.291Z,100728.13
2022-08-03T22:54:39.318Z,100725.88
2022-08-03T22:56:40.853Z,100726.44
2022-08-03T22:58:42.331Z,100736.72
2022-08-03T23:00:45.926Z,100727.59
2022-08-03T23:02:54.740Z,100727.31
2022-08-03T23:04:57.237Z,100737.03
2022-08-03T23:06:59.879Z,100729.56
2022-08-03T23:09:01.803Z,100734.81
2022-08-03T23:11:06.101Z,100730.69
2022-08-03T23:13:08.006Z,100741.97
2022-08-03T23:15:10.457Z,100736.44
2022-08-03T23:17:12.121Z,100728.19
2022-08-03T23:19:17.032Z,100732.41
2022-08-03T23:21:52.852Z,100732.16
2022-08-03T23:23:49.261Z,100734.44
2022-08-03T23:25:51.891Z,100732.31
2022-08-03T23:28:04.862Z,100730.00
2022-08-03T23:30:08.194Z,100731.22
2022-08-03T23:32:09.822Z,100730.31
2022-08-03T23:34:16.398Z,100729.63
2022-08-03T23:36:30.237Z,100735.06
2022-08-03T23:38:34.684Z,100734.16
2022-08-03T23:40:36.178Z,100732.78
2022-08-03T23:42:37.712Z,100739.09
2022-08-03T23:44:40.902Z,100726.81
2022-08-03T23:46:42.409Z,100726.72
2022-08-03T23:48:44.109Z,100729.00